sensor_id;sensor_type;location;lat;lon;timestamp;pressure;altitude;pressure_sealevel;temperature;humidity
79118;BME280;68523;51.336;-0.846;2024-02-16T00:00:00;99625.0;;;10.80;100.3
79118;BME280;68523;51.336;-0.846;2024-02-16T00:03:00;99625.0;;;10.75;100.5
79118;BME280;68523;51.336;-0.846;2024-02-16T00:06:00;99625.0;;;10.79;100.6
79118;BME280;68523;51.336;-0.846;2024-02-16T00:09:00;99625.0;;;10.80;100.6
79118;BME280;68523;51.336;-0.846;2024-02-16T00:12:00;99625.0;;;10.82;100.7
79118;BME280;68523;51.336;-0.846;2024-02-16T00:15:01;99625.0;;;10.76;100.8
79118;BME280;68523;51.336;-0.846;2024-02-16T00:18:00;99625.0;;;10.85;100.8
79118;BME280;68523;51.336;-0.846;2024-02-16T00:21:00;99625.0;;;10.92;100.8
79118;BME280;68523;51.336;-0.846;2024-02-16T00:24:00;99625.0;;;11.09;100.6
79118;BME280;68523;51.336;-0.846;2024-02-16T00:27:00;99635.0;;;11.15;100.5
79118;BME280;68523;51.336;-0.846;2024-02-16T00:30:00;99635.0;;;11.17;100.5
79118;BME280;68523;51.336;-0.846;2024-02-16T00:33:00;99645.0;;;11.21;100.7
79118;BME280;68523;51.336;-0.846;2024-02-16T00:36:00;99635.0;;;11.21;100.8
79118;BME280;68523;51.336;-0.846;2024-02-16T00:39:00;99635.0;;;11.21;101.0
79118;BME280;68523;51.336;-0.846;2024-02-16T00:42:00;99635.0;;;11.20;101.0
79118;BME280;68523;51.336;-0.846;2024-02-16T00:45:00;99635.0;;;11.23;101.1
79118;BME280;68523;51.336;-0.846;2024-02-16T00:48:00;99635.0;;;11.21;101.2
79118;BME280;68523;51.336;-0.846;2024-02-16T00:51:00;99635.0;;;11.21;101.1
79118;BME280;68523;51.336;-0.846;2024-02-16T00:54:00;99645.0;;;11.23;101.2
79118;BME280;68523;51.336;-0.846;2024-02-16T00:57:00;99655.0;;;11.22;101.1
79118;BME280;68523;51.336;-0.846;2024-02-16T01:00:00;99655.0;;;11.23;101.1
79118;BME280;68523;51.336;-0.846;2024-02-16T01:03:00;99655.0;;;11.25;100.9
79118;BME280;68523;51.336;-0.846;2024-02-16T01:06:01;99655.0;;;11.22;100.9
79118;BME280;68523;51.336;-0.846;2024-02-16T01:09:00;99655.0;;;11.23;100.8
79118;BME280;68523;51.336;-0.846;2024-02-16T01:12:00;99655.0;;;11.28;100.2
79118;BME280;68523;51.336;-0.846;2024-02-16T01:15:00;99655.0;;;11.27;100.0
79118;BME280;68523;51.336;-0.846;2024-02-16T01:18:00;99645.0;;;11.23;99.8
79118;BME280;68523;51.336;-0.846;2024-02-16T01:21:00;99645.0;;;11.26;99.6
79118;BME280;68523;51.336;-0.846;2024-02-16T01:24:00;99655.0;;;11.22;99.7
79118;BME280;68523;51.336;-0.846;2024-02-16T01:27:00;99655.0;;;11.20;99.8
79118;BME280;68523;51.336;-0.846;2024-02-16T01:30:00;99655.0;;;11.14;100.0
79118;BME280;68523;51.336;-0.846;2024-02-16T01:33:00;99655.0;;;11.14;100.0
79118;BME280;68523;51.336;-0.846;2024-02-16T01:36:00;99665.0;;;11.11;100.1
79118;BME280;68523;51.336;-0.846;2024-02-16T01:39:00;99665.0;;;11.10;99.9
79118;BME280;68523;51.336;-0.846;2024-02-16T01:42:00;99665.0;;;11.08;99.8
79118;BME280;68523;51.336;-0.846;2024-02-16T01:45:00;99675.0;;;11.08;99.8
79118;BME280;68523;51.336;-0.846;2024-02-16T01:48:00;99675.0;;;11.07;99.4
79118;BME280;68523;51.336;-0.846;2024-02-16T01:51:00;99685.0;;;11.08;99.4
79118;BME280;68523;51.336;-0.846;2024-02-16T01:54:01;99695.0;;;11.08;99.2
79118;BME280;68523;51.336;-0.846;2024-02-16T01:57:01;99705.0;;;11.10;99.0
79118;BME280;68523;51.336;-0.846;2024-02-16T02:00:01;99695.0;;;11.10;99.0
79118;BME280;68523;51.336;-0.846;2024-02-16T02:03:00;99695.0;;;11.05;99.1
79118;BME280;68523;51.336;-0.846;2024-02-16T02:06:01;99695.0;;;11.03;98.9
79118;BME280;68523;51.336;-0.846;2024-02-16T02:09:00;99705.0;;;11.04;98.4
79118;BME280;68523;51.336;-0.846;2024-02-16T02:12:00;99715.0;;;11.01;98.0
79118;BME280;68523;51.336;-0.846;2024-02-16T02:15:00;99715.0;;;11.00;98.3
79118;BME280;68523;51.336;-0.846;2024-02-16T02:18:00;99725.0;;;10.95;97.9
79118;BME280;68523;51.336;-0.846;2024-02-16T02:21:00;99735.0;;;10.91;98.0
79118;BME280;68523;51.336;-0.846;2024-02-16T02:24:00;99745.0;;;10.85;98.5
79118;BME280;68523;51.336;-0.846;2024-02-16T02:27:00;99735.0;;;10.78;98.7
79118;BME280;68523;51.336;-0.846;2024-02-16T02:30:00;99735.0;;;10.69;99.2
79118;BME280;68523;51.336;-0.846;2024-02-16T02:33:00;99735.0;;;10.61;99.6
79118;BME280;68523;51.336;-0.846;2024-02-16T02:36:00;99735.0;;;10.55;100.1
79118;BME280;68523;51.336;-0.846;2024-02-16T02:39:00;99725.0;;;10.49;100.5
79118;BME280;68523;51.336;-0.846;2024-02-16T02:42:00;99725.0;;;10.43;100.7
79118;BME280;68523;51.336;-0.846;2024-02-16T02:45:01;99745.0;;;10.41;100.9
79118;BME280;68523;51.336;-0.846;2024-02-16T02:48:00;99745.0;;;10.39;101.0
79118;BME280;68523;51.336;-0.846;2024-02-16T02:51:00;99765.0;;;10.38;101.1
79118;BME280;68523;51.336;-0.846;2024-02-16T02:54:00;99765.0;;;10.37;101.2
79118;BME280;68523;51.336;-0.846;2024-02-16T02:57:01;99745.0;;;10.34;101.2
79118;BME280;68523;51.336;-0.846;2024-02-16T03:00:03;99745.0;;;10.32;101.3
79118;BME280;68523;51.336;-0.846;2024-02-16T03:03:00;99755.0;;;10.32;101.3
79118;BME280;68523;51.336;-0.846;2024-02-16T03:06:00;99755.0;;;10.33;101.3
79118;BME280;68523;51.336;-0.846;2024-02-16T03:09:00;99755.0;;;10.28;101.4
79118;BME280;68523;51.336;-0.846;2024-02-16T03:12:00;99765.0;;;10.29;101.2
79118;BME280;68523;51.336;-0.846;2024-02-16T03:15:00;99775.0;;;10.28;101.3
79118;BME280;68523;51.336;-0.846;2024-02-16T03:18:01;99775.0;;;10.28;101.2
79118;BME280;68523;51.336;-0.846;2024-02-16T03:21:00;99785.0;;;10.27;101.1
79118;BME280;68523;51.336;-0.846;2024-02-16T03:24:01;99785.0;;;10.23;101.2
79118;BME280;68523;51.336;-0.846;2024-02-16T03:27:00;99785.0;;;10.24;101.3
79118;BME280;68523;51.336;-0.846;2024-02-16T03:30:00;99795.0;;;10.22;101.2
79118;BME280;68523;51.336;-0.846;2024-02-16T03:33:00;99795.0;;;10.22;101.2
79118;BME280;68523;51.336;-0.846;2024-02-16T03:36:01;99815.0;;;10.23;101.2
79118;BME280;68523;51.336;-0.846;2024-02-16T03:39:00;99815.0;;;10.23;101.2
79118;BME280;68523;51.336;-0.846;2024-02-16T03:42:00;99815.0;;;10.25;101.2
79118;BME280;68523;51.336;-0.846;2024-02-16T03:45:00;99835.0;;;10.27;101.2
79118;BME280;68523;51.336;-0.846;2024-02-16T03:48:00;99855.0;;;10.26;101.3
79118;BME280;68523;51.336;-0.846;2024-02-16T03:51:00;99865.0;;;10.31;101.2
79118;BME280;68523;51.336;-0.846;2024-02-16T03:54:00;99865.0;;;10.34;101.1
79118;BME280;68523;51.336;-0.846;2024-02-16T03:57:00;99875.0;;;10.32;101.1
79118;BME280;68523;51.336;-0.846;2024-02-16T04:00:00;99875.0;;;10.34;100.9
79118;BME280;68523;51.336;-0.846;2024-02-16T04:03:00;99875.0;;;10.34;100.7
79118;BME280;68523;51.336;-0.846;2024-02-16T04:06:00;99875.0;;;10.31;100.6
79118;BME280;68523;51.336;-0.846;2024-02-16T04:09:00;99875.0;;;10.27;100.6
79118;BME280;68523;51.336;-0.846;2024-02-16T04:12:01;99885.0;;;10.28;100.7
79118;BME280;68523;51.336;-0.846;2024-02-16T04:15:00;99885.0;;;10.28;100.6
79118;BME280;68523;51.336;-0.846;2024-02-16T04:18:00;99895.0;;;10.27;100.7
79118;BME280;68523;51.336;-0.846;2024-02-16T04:21:00;99895.0;;;10.23;101.0
79118;BME280;68523;51.336;-0.846;2024-02-16T04:24:00;99895.0;;;10.22;101.0
79118;BME280;68523;51.336;-0.846;2024-02-16T04:27:00;99895.0;;;10.21;101.1
79118;BME280;68523;51.336;-0.846;2024-02-16T04:30:01;99905.0;;;10.18;101.2
79118;BME280;68523;51.336;-0.846;2024-02-16T04:33:00;99895.0;;;10.12;101.4
79118;BME280;68523;51.336;-0.846;2024-02-16T04:36:00;99885.0;;;10.12;101.4
79118;BME280;68523;51.336;-0.846;2024-02-16T04:39:00;99885.0;;;10.07;101.5
79118;BME280;68523;51.336;-0.846;2024-02-16T04:42:01;99885.0;;;10.06;101.5
79118;BME280;68523;51.336;-0.846;2024-02-16T04:45:00;99905.0;;;10.08;101.5
79118;BME280;68523;51.336;-0.846;2024-02-16T04:48:02;99905.0;;;10.05;101.6
79118;BME280;68523;51.336;-0.846;2024-02-16T04:51:00;99925.0;;;10.02;101.7
79118;BME280;68523;51.336;-0.846;2024-02-16T04:54:00;99925.0;;;9.99;101.8
79118;BME280;68523;51.336;-0.846;2024-02-16T04:57:00;99935.0;;;9.97;101.8
79118;BME280;68523;51.336;-0.846;2024-02-16T05:00:00;99945.0;;;9.94;101.8
79118;BME280;68523;51.336;-0.846;2024-02-16T05:03:00;99955.0;;;9.96;101.8
79118;BME280;68523;51.336;-0.846;2024-02-16T05:06:00;99965.0;;;9.96;101.8
79118;BME280;68523;51.336;-0.846;2024-02-16T05:09:00;99965.0;;;9.94;101.8
79118;BME280;68523;51.336;-0.846;2024-02-16T05:12:00;99975.0;;;9.93;101.8
79118;BME280;68523;51.336;-0.846;2024-02-16T05:15:00;99985.0;;;9.90;101.8
79118;BME280;68523;51.336;-0.846;2024-02-16T05:18:00;99975.0;;;9.91;101.7
79118;BME280;68523;51.336;-0.846;2024-02-16T05:21:00;99985.0;;;9.88;101.8
79118;BME280;68523;51.336;-0.846;2024-02-16T05:24:01;99985.0;;;9.85;101.8
79118;BME280;68523;51.336;-0.846;2024-02-16T05:27:00;99985.0;;;9.82;101.9
79118;BME280;68523;51.336;-0.846;2024-02-16T05:30:00;99995.0;;;9.80;101.9
79118;BME280;68523;51.336;-0.846;2024-02-16T05:33:00;99995.0;;;9.83;101.8
79118;BME280;68523;51.336;-0.846;2024-02-16T05:36:00;100005.0;;;9.84;101.7
79118;BME280;68523;51.336;-0.846;2024-02-16T05:39:00;100005.0;;;9.80;101.7
79118;BME280;68523;51.336;-0.846;2024-02-16T05:42:00;100005.0;;;9.74;101.7
79118;BME280;68523;51.336;-0.846;2024-02-16T05:45:00;100015.0;;;9.74;101.7
79118;BME280;68523;51.336;-0.846;2024-02-16T05:48:00;100025.0;;;9.73;101.6
79118;BME280;68523;51.336;-0.846;2024-02-16T05:51:00;100025.0;;;9.72;101.5
79118;BME280;68523;51.336;-0.846;2024-02-16T05:54:00;100035.0;;;9.73;101.2
79118;BME280;68523;51.336;-0.846;2024-02-16T05:57:00;100035.0;;;9.66;101.3
79118;BME280;68523;51.336;-0.846;2024-02-16T06:00:00;100045.0;;;9.66;101.3
79118;BME280;68523;51.336;-0.846;2024-02-16T06:03:00;100045.0;;;9.61;101.2
79118;BME280;68523;51.336;-0.846;2024-02-16T06:06:00;100055.0;;;9.63;100.9
79118;BME280;68523;51.336;-0.846;2024-02-16T06:09:00;100055.0;;;9.61;100.7
79118;BME280;68523;51.336;-0.846;2024-02-16T06:12:01;100065.0;;;9.58;100.5
79118;BME280;68523;51.336;-0.846;2024-02-16T06:15:00;100065.0;;;9.54;100.4
79118;BME280;68523;51.336;-0.846;2024-02-16T06:18:01;100065.0;;;9.49;99.8
79118;BME280;68523;51.336;-0.846;2024-02-16T06:21:00;100075.0;;;9.44;99.8
79118;BME280;68523;51.336;-0.846;2024-02-16T06:24:00;100075.0;;;9.41;99.7
79118;BME280;68523;51.336;-0.846;2024-02-16T06:27:00;100085.0;;;9.42;99.1
79118;BME280;68523;51.336;-0.846;2024-02-16T06:30:00;100095.0;;;9.29;99.2
79118;BME280;68523;51.336;-0.846;2024-02-16T06:33:00;100105.0;;;9.26;99.4
79118;BME280;68523;51.336;-0.846;2024-02-16T06:36:00;100105.0;;;9.20;99.5
79118;BME280;68523;51.336;-0.846;2024-02-16T06:39:00;100115.0;;;9.14;99.8
79118;BME280;68523;51.336;-0.846;2024-02-16T06:42:00;100125.0;;;9.05;100.1
79118;BME280;68523;51.336;-0.846;2024-02-16T06:45:01;100125.0;;;9.00;99.9
79118;BME280;68523;51.336;-0.846;2024-02-16T06:48:00;100135.0;;;8.97;99.6
79118;BME280;68523;51.336;-0.846;2024-02-16T06:51:00;100155.0;;;8.94;99.7
79118;BME280;68523;51.336;-0.846;2024-02-16T06:54:00;100155.0;;;8.92;99.6
79118;BME280;68523;51.336;-0.846;2024-02-16T06:57:00;100155.0;;;8.91;99.3
79118;BME280;68523;51.336;-0.846;2024-02-16T07:00:00;100165.0;;;8.89;99.4
79118;BME280;68523;51.336;-0.846;2024-02-16T07:03:00;100165.0;;;8.81;99.7
79118;BME280;68523;51.336;-0.846;2024-02-16T07:06:00;100165.0;;;8.82;99.3
79118;BME280;68523;51.336;-0.846;2024-02-16T07:09:01;100175.0;;;8.81;99.4
79118;BME280;68523;51.336;-0.846;2024-02-16T07:12:00;100185.0;;;8.74;99.7
79118;BME280;68523;51.336;-0.846;2024-02-16T07:15:01;100205.0;;;8.72;99.8
79118;BME280;68523;51.336;-0.846;2024-02-16T07:18:00;100215.0;;;8.75;99.7
79118;BME280;68523;51.336;-0.846;2024-02-16T07:21:00;100225.0;;;8.72;99.9
79118;BME280;68523;51.336;-0.846;2024-02-16T07:24:00;100225.0;;;8.74;99.8
79118;BME280;68523;51.336;-0.846;2024-02-16T07:27:00;100235.0;;;8.74;99.9
79118;BME280;68523;51.336;-0.846;2024-02-16T07:30:01;100235.0;;;8.74;99.8
79118;BME280;68523;51.336;-0.846;2024-02-16T07:33:00;100245.0;;;8.76;99.4
79118;BME280;68523;51.336;-0.846;2024-02-16T07:36:00;100255.0;;;8.74;99.7
79118;BME280;68523;51.336;-0.846;2024-02-16T07:39:00;100265.0;;;8.67;99.5
79118;BME280;68523;51.336;-0.846;2024-02-16T07:42:00;100275.0;;;8.68;99.4
79118;BME280;68523;51.336;-0.846;2024-02-16T07:45:01;100275.0;;;8.69;99.6
79118;BME280;68523;51.336;-0.846;2024-02-16T07:48:00;100275.0;;;8.65;99.6
79118;BME280;68523;51.336;-0.846;2024-02-16T07:51:01;100285.0;;;8.60;99.5
79118;BME280;68523;51.336;-0.846;2024-02-16T07:54:00;100295.0;;;8.54;99.6
79118;BME280;68523;51.336;-0.846;2024-02-16T07:57:00;100305.0;;;8.48;99.8
79118;BME280;68523;51.336;-0.846;2024-02-16T08:00:01;100315.0;;;8.40;99.9
79118;BME280;68523;51.336;-0.846;2024-02-16T08:03:00;100315.0;;;8.33;100.1
79118;BME280;68523;51.336;-0.846;2024-02-16T08:06:01;100325.0;;;8.32;99.8
79118;BME280;68523;51.336;-0.846;2024-02-16T08:09:00;100325.0;;;8.32;99.7
79118;BME280;68523;51.336;-0.846;2024-02-16T08:12:00;100335.0;;;8.31;99.6
79118;BME280;68523;51.336;-0.846;2024-02-16T08:15:00;100345.0;;;8.32;99.3
79118;BME280;68523;51.336;-0.846;2024-02-16T08:18:00;100345.0;;;8.30;99.4
79118;BME280;68523;51.336;-0.846;2024-02-16T08:21:00;100345.0;;;8.31;99.3
79118;BME280;68523;51.336;-0.846;2024-02-16T08:24:00;100355.0;;;8.36;99.1
79118;BME280;68523;51.336;-0.846;2024-02-16T08:27:01;100355.0;;;8.36;98.9
79118;BME280;68523;51.336;-0.846;2024-02-16T08:30:00;100365.0;;;8.40;98.7
79118;BME280;68523;51.336;-0.846;2024-02-16T08:33:00;100365.0;;;8.41;98.5
79118;BME280;68523;51.336;-0.846;2024-02-16T08:36:00;100375.0;;;8.46;98.3
79118;BME280;68523;51.336;-0.846;2024-02-16T08:39:00;100375.0;;;8.53;98.2
79118;BME280;68523;51.336;-0.846;2024-02-16T08:42:01;100385.0;;;8.57;97.9
79118;BME280;68523;51.336;-0.846;2024-02-16T08:45:00;100385.0;;;9.05;96.0
79118;BME280;68523;51.336;-0.846;2024-02-16T08:48:00;100385.0;;;9.00;96.3
79118;BME280;68523;51.336;-0.846;2024-02-16T08:51:00;100395.0;;;9.03;95.8
79118;BME280;68523;51.336;-0.846;2024-02-16T08:54:00;100395.0;;;9.22;95.1
79118;BME280;68523;51.336;-0.846;2024-02-16T08:57:00;100405.0;;;9.34;94.7
79118;BME280;68523;51.336;-0.846;2024-02-16T09:00:00;100405.0;;;9.78;93.1
79118;BME280;68523;51.336;-0.846;2024-02-16T09:03:00;100415.0;;;10.12;91.7
79118;BME280;68523;51.336;-0.846;2024-02-16T09:06:00;100415.0;;;10.25;91.4
79118;BME280;68523;51.336;-0.846;2024-02-16T09:09:01;100425.0;;;10.12;91.7
79118;BME280;68523;51.336;-0.846;2024-02-16T09:12:00;100435.0;;;10.10;92.0
79118;BME280;68523;51.336;-0.846;2024-02-16T09:15:01;100435.0;;;10.06;91.9
79118;BME280;68523;51.336;-0.846;2024-02-16T09:18:00;100445.0;;;10.37;91.1
79118;BME280;68523;51.336;-0.846;2024-02-16T09:21:00;100455.0;;;10.41;90.7
79118;BME280;68523;51.336;-0.846;2024-02-16T09:24:00;100455.0;;;10.52;90.0
79118;BME280;68523;51.336;-0.846;2024-02-16T09:27:00;100465.0;;;10.47;89.9
79118;BME280;68523;51.336;-0.846;2024-02-16T09:30:00;100475.0;;;10.71;90.2
79118;BME280;68523;51.336;-0.846;2024-02-16T09:33:00;100485.0;;;10.24;90.2
79118;BME280;68523;51.336;-0.846;2024-02-16T09:36:00;100495.0;;;10.27;91.0
79118;BME280;68523;51.336;-0.846;2024-02-16T09:39:00;100495.0;;;10.20;91.6
79118;BME280;68523;51.336;-0.846;2024-02-16T09:42:00;100495.0;;;10.20;91.3
79118;BME280;68523;51.336;-0.846;2024-02-16T09:45:00;100505.0;;;10.08;92.3
79118;BME280;68523;51.336;-0.846;2024-02-16T09:48:01;100515.0;;;10.10;92.0
79118;BME280;68523;51.336;-0.846;2024-02-16T09:51:00;100515.0;;;10.05;91.1
79118;BME280;68523;51.336;-0.846;2024-02-16T09:54:01;100515.0;;;10.29;91.5
79118;BME280;68523;51.336;-0.846;2024-02-16T09:57:01;100515.0;;;10.49;90.5
79118;BME280;68523;51.336;-0.846;2024-02-16T10:00:01;100525.0;;;10.39;90.5
79118;BME280;68523;51.336;-0.846;2024-02-16T10:03:00;100525.0;;;10.37;90.8
79118;BME280;68523;51.336;-0.846;2024-02-16T10:06:04;100535.0;;;10.38;90.6
79118;BME280;68523;51.336;-0.846;2024-02-16T10:09:00;100535.0;;;10.49;90.5
79118;BME280;68523;51.336;-0.846;2024-02-16T10:12:00;100545.0;;;10.59;90.1
79118;BME280;68523;51.336;-0.846;2024-02-16T10:15:00;100545.0;;;10.66;90.2
79118;BME280;68523;51.336;-0.846;2024-02-16T10:18:01;100555.0;;;10.62;89.3
79118;BME280;68523;51.336;-0.846;2024-02-16T10:21:00;100565.0;;;11.12;89.0
79118;BME280;68523;51.336;-0.846;2024-02-16T10:24:02;100565.0;;;10.93;88.9
79118;BME280;68523;51.336;-0.846;2024-02-16T10:27:00;100565.0;;;10.95;88.9
79118;BME280;68523;51.336;-0.846;2024-02-16T10:30:01;100565.0;;;11.18;87.9
79118;BME280;68523;51.336;-0.846;2024-02-16T10:33:00;100565.0;;;11.34;87.5
79118;BME280;68523;51.336;-0.846;2024-02-16T10:36:00;100575.0;;;11.07;87.9
79118;BME280;68523;51.336;-0.846;2024-02-16T10:39:01;100575.0;;;11.14;88.0
79118;BME280;68523;51.336;-0.846;2024-02-16T10:42:01;100585.0;;;11.40;87.3
79118;BME280;68523;51.336;-0.846;2024-02-16T10:45:01;100575.0;;;11.27;87.2
79118;BME280;68523;51.336;-0.846;2024-02-16T10:48:00;100575.0;;;11.27;87.6
79118;BME280;68523;51.336;-0.846;2024-02-16T10:51:01;100585.0;;;11.23;86.9
79118;BME280;68523;51.336;-0.846;2024-02-16T10:54:01;100595.0;;;11.75;86.2
79118;BME280;68523;51.336;-0.846;2024-02-16T10:57:00;100595.0;;;11.28;87.5
79118;BME280;68523;51.336;-0.846;2024-02-16T11:00:01;100605.0;;;11.48;87.2
79118;BME280;68523;51.336;-0.846;2024-02-16T11:03:03;100615.0;;;11.55;85.9
79118;BME280;68523;51.336;-0.846;2024-02-16T11:06:00;100615.0;;;11.64;85.0
79118;BME280;68523;51.336;-0.846;2024-02-16T11:09:02;100615.0;;;11.88;84.5
79118;BME280;68523;51.336;-0.846;2024-02-16T11:12:01;100625.0;;;12.10;83.3
79118;BME280;68523;51.336;-0.846;2024-02-16T11:15:00;100625.0;;;12.16;83.3
79118;BME280;68523;51.336;-0.846;2024-02-16T11:18:01;100635.0;;;12.24;84.0
79118;BME280;68523;51.336;-0.846;2024-02-16T11:21:01;100635.0;;;11.85;83.7
79118;BME280;68523;51.336;-0.846;2024-02-16T11:24:06;100645.0;;;11.85;84.3
79118;BME280;68523;51.336;-0.846;2024-02-16T11:27:01;100635.0;;;12.21;83.9
79118;BME280;68523;51.336;-0.846;2024-02-16T11:30:01;100645.0;;;12.43;82.9
79118;BME280;68523;51.336;-0.846;2024-02-16T11:33:00;100645.0;;;12.41;82.3
79118;BME280;68523;51.336;-0.846;2024-02-16T11:36:02;100645.0;;;12.52;81.7
79118;BME280;68523;51.336;-0.846;2024-02-16T11:39:00;100645.0;;;12.09;83.2
79118;BME280;68523;51.336;-0.846;2024-02-16T11:42:01;100655.0;;;12.31;82.8
79118;BME280;68523;51.336;-0.846;2024-02-16T11:45:00;100665.0;;;11.94;84.1
79118;BME280;68523;51.336;-0.846;2024-02-16T11:48:05;100655.0;;;12.17;83.2
79118;BME280;68523;51.336;-0.846;2024-02-16T11:51:02;100655.0;;;13.55;80.0
79118;BME280;68523;51.336;-0.846;2024-02-16T11:54:00;100665.0;;;13.81;79.1
79118;BME280;68523;51.336;-0.846;2024-02-16T11:57:00;100665.0;;;13.50;79.0
79118;BME280;68523;51.336;-0.846;2024-02-16T12:00:01;100665.0;;;13.39;77.2
79118;BME280;68523;51.336;-0.846;2024-02-16T12:03:01;100665.0;;;13.25;77.7
79118;BME280;68523;51.336;-0.846;2024-02-16T12:06:00;100665.0;;;13.40;77.8
79118;BME280;68523;51.336;-0.846;2024-02-16T12:09:00;100675.0;;;13.44;76.6
79118;BME280;68523;51.336;-0.846;2024-02-16T12:12:00;100675.0;;;13.17;77.7
79118;BME280;68523;51.336;-0.846;2024-02-16T12:15:01;100675.0;;;12.10;81.6
79118;BME280;68523;51.336;-0.846;2024-02-16T12:18:01;100675.0;;;11.91;82.2
79118;BME280;68523;51.336;-0.846;2024-02-16T12:21:01;100675.0;;;11.95;81.9
79118;BME280;68523;51.336;-0.846;2024-02-16T12:24:00;100675.0;;;12.74;79.4
79118;BME280;68523;51.336;-0.846;2024-02-16T12:27:00;100675.0;;;12.55;81.0
79118;BME280;68523;51.336;-0.846;2024-02-16T12:30:00;100675.0;;;12.10;81.7
79118;BME280;68523;51.336;-0.846;2024-02-16T12:33:00;100675.0;;;11.93;81.4
79118;BME280;68523;51.336;-0.846;2024-02-16T12:36:00;100685.0;;;11.89;81.8
79118;BME280;68523;51.336;-0.846;2024-02-16T12:39:00;100685.0;;;11.93;81.0
79118;BME280;68523;51.336;-0.846;2024-02-16T12:42:00;100685.0;;;11.89;82.2
79118;BME280;68523;51.336;-0.846;2024-02-16T12:45:00;100685.0;;;11.97;82.3
79118;BME280;68523;51.336;-0.846;2024-02-16T12:48:00;100695.0;;;11.80;82.5
79118;BME280;68523;51.336;-0.846;2024-02-16T12:51:00;100695.0;;;11.72;82.4
79118;BME280;68523;51.336;-0.846;2024-02-16T12:54:01;100695.0;;;11.73;83.4
79118;BME280;68523;51.336;-0.846;2024-02-16T12:57:00;100695.0;;;11.66;82.7
79118;BME280;68523;51.336;-0.846;2024-02-16T13:00:00;100705.0;;;11.67;82.7
79118;BME280;68523;51.336;-0.846;2024-02-16T13:03:00;100705.0;;;11.76;82.3
79118;BME280;68523;51.336;-0.846;2024-02-16T13:06:01;100705.0;;;11.90;82.2
79118;BME280;68523;51.336;-0.846;2024-02-16T13:09:00;100705.0;;;11.82;81.4
79118;BME280;68523;51.336;-0.846;2024-02-16T13:12:00;100705.0;;;11.69;81.2
79118;BME280;68523;51.336;-0.846;2024-02-16T13:15:00;100715.0;;;11.64;80.9
79118;BME280;68523;51.336;-0.846;2024-02-16T13:18:00;100725.0;;;11.74;80.3
79118;BME280;68523;51.336;-0.846;2024-02-16T13:21:00;100725.0;;;11.74;79.4
79118;BME280;68523;51.336;-0.846;2024-02-16T13:24:01;100735.0;;;11.71;80.1
79118;BME280;68523;51.336;-0.846;2024-02-16T13:27:00;100735.0;;;11.82;80.0
79118;BME280;68523;51.336;-0.846;2024-02-16T13:30:00;100735.0;;;11.87;80.2
79118;BME280;68523;51.336;-0.846;2024-02-16T13:33:00;100745.0;;;11.82;80.5
79118;BME280;68523;51.336;-0.846;2024-02-16T13:36:00;100745.0;;;11.77;80.9
79118;BME280;68523;51.336;-0.846;2024-02-16T13:39:00;100745.0;;;11.69;80.7
79118;BME280;68523;51.336;-0.846;2024-02-16T13:42:00;100755.0;;;11.63;81.3
79118;BME280;68523;51.336;-0.846;2024-02-16T13:45:00;100755.0;;;11.61;81.2
79118;BME280;68523;51.336;-0.846;2024-02-16T13:48:09;100755.0;;;11.59;80.2
79118;BME280;68523;51.336;-0.846;2024-02-16T13:51:00;100765.0;;;11.61;80.6
79118;BME280;68523;51.336;-0.846;2024-02-16T13:54:00;100765.0;;;11.58;80.6
79118;BME280;68523;51.336;-0.846;2024-02-16T13:57:00;100775.0;;;11.57;79.8
79118;BME280;68523;51.336;-0.846;2024-02-16T14:00:01;100775.0;;;11.59;80.1
79118;BME280;68523;51.336;-0.846;2024-02-16T14:03:01;100775.0;;;11.53;79.0
79118;BME280;68523;51.336;-0.846;2024-02-16T14:06:01;100775.0;;;11.55;79.4
79118;BME280;68523;51.336;-0.846;2024-02-16T14:09:00;100775.0;;;11.51;80.1
79118;BME280;68523;51.336;-0.846;2024-02-16T14:12:00;100775.0;;;11.45;80.1
79118;BME280;68523;51.336;-0.846;2024-02-16T14:15:00;100775.0;;;11.51;80.8
79118;BME280;68523;51.336;-0.846;2024-02-16T14:18:01;100785.0;;;11.51;80.4
79118;BME280;68523;51.336;-0.846;2024-02-16T14:21:01;100785.0;;;11.48;79.9
79118;BME280;68523;51.336;-0.846;2024-02-16T14:24:01;100785.0;;;11.50;80.5
79118;BME280;68523;51.336;-0.846;2024-02-16T14:27:00;100795.0;;;11.36;80.0
79118;BME280;68523;51.336;-0.846;2024-02-16T14:30:01;100795.0;;;11.41;80.2
79118;BME280;68523;51.336;-0.846;2024-02-16T14:33:01;100795.0;;;11.27;80.5
79118;BME280;68523;51.336;-0.846;2024-02-16T14:36:01;100805.0;;;11.21;81.0
79118;BME280;68523;51.336;-0.846;2024-02-16T14:39:00;100805.0;;;11.27;80.9
79118;BME280;68523;51.336;-0.846;2024-02-16T14:42:00;100805.0;;;11.26;80.8
79118;BME280;68523;51.336;-0.846;2024-02-16T14:45:01;100815.0;;;11.27;81.0
79118;BME280;68523;51.336;-0.846;2024-02-16T14:48:01;100815.0;;;11.25;81.0
79118;BME280;68523;51.336;-0.846;2024-02-16T14:51:01;100825.0;;;11.22;81.1
79118;BME280;68523;51.336;-0.846;2024-02-16T14:54:00;100835.0;;;11.18;80.6
79118;BME280;68523;51.336;-0.846;2024-02-16T14:57:01;100845.0;;;11.17;81.6
79118;BME280;68523;51.336;-0.846;2024-02-16T15:00:01;100855.0;;;11.13;81.7
79118;BME280;68523;51.336;-0.846;2024-02-16T15:03:00;100855.0;;;11.14;81.7
79118;BME280;68523;51.336;-0.846;2024-02-16T15:06:00;100855.0;;;11.09;81.8
79118;BME280;68523;51.336;-0.846;2024-02-16T15:09:00;100865.0;;;11.04;82.2
79118;BME280;68523;51.336;-0.846;2024-02-16T15:12:00;100865.0;;;10.98;81.5
79118;BME280;68523;51.336;-0.846;2024-02-16T15:15:00;100875.0;;;10.97;80.4
79118;BME280;68523;51.336;-0.846;2024-02-16T15:18:01;100885.0;;;10.91;80.1
79118;BME280;68523;51.336;-0.846;2024-02-16T15:21:00;100895.0;;;10.92;80.7
79118;BME280;68523;51.336;-0.846;2024-02-16T15:24:00;100905.0;;;10.89;80.3
79118;BME280;68523;51.336;-0.846;2024-02-16T15:27:01;100905.0;;;10.87;80.1
79118;BME280;68523;51.336;-0.846;2024-02-16T15:30:01;100915.0;;;10.85;80.3
79118;BME280;68523;51.336;-0.846;2024-02-16T15:33:00;100915.0;;;10.81;80.7
79118;BME280;68523;51.336;-0.846;2024-02-16T15:36:00;100915.0;;;10.81;80.6
79118;BME280;68523;51.336;-0.846;2024-02-16T15:39:00;100925.0;;;10.79;80.9
79118;BME280;68523;51.336;-0.846;2024-02-16T15:42:00;100925.0;;;10.78;80.2
79118;BME280;68523;51.336;-0.846;2024-02-16T15:45:01;100925.0;;;10.79;80.0
79118;BME280;68523;51.336;-0.846;2024-02-16T15:48:00;100925.0;;;10.78;79.9
79118;BME280;68523;51.336;-0.846;2024-02-16T15:51:00;100925.0;;;10.77;80.6
79118;BME280;68523;51.336;-0.846;2024-02-16T15:54:00;100925.0;;;10.75;79.9